createdAt,value
2019-01-09T00:00:04.349Z,44.44
2019-01-09T00:01:02.154Z,44.64
2019-01-09T00:01:59.243Z,44.46
2019-01-09T00:02:55.457Z,44.88
2019-01-09T00:03:53.357Z,44.63
2019-01-09T00:04:50.509Z,44.56
2019-01-09T00:05:47.497Z,44.63
2019-01-09T00:06:43.665Z,43.49
2019-01-09T00:07:41.617Z,44.63
2019-01-09T00:08:37.859Z,44.63
2019-01-09T00:09:35.754Z,44.63
2019-01-09T00:10:32.035Z,44.63
2019-01-09T00:11:29.077Z,44.62
2019-01-09T00:12:26.100Z,44.60
2019-01-09T00:13:23.183Z,44.60
2019-01-09T00:14:20.196Z,44.59
2019-01-09T00:15:17.258Z,44.58
2019-01-09T00:16:14.356Z,44.58
2019-01-09T00:17:11.473Z,44.32
2019-01-09T00:18:08.482Z,44.55
2019-01-09T00:19:06.443Z,44.43
2019-01-09T00:20:03.487Z,44.53
2019-01-09T00:20:59.651Z,44.83
2019-01-09T00:21:57.612Z,43.99
2019-01-09T00:22:53.811Z,44.84
2019-01-09T00:23:50.848Z,44.51
2019-01-09T00:24:48.824Z,44.10
2019-01-09T00:25:45.005Z,44.51
2019-01-09T00:26:42.116Z,44.50
2019-01-09T00:27:39.107Z,44.68
2019-01-09T00:28:36.251Z,44.51
2019-01-09T00:29:33.281Z,44.48
2019-01-09T00:30:30.323Z,44.49
2019-01-09T00:31:27.503Z,44.47
2019-01-09T00:32:24.468Z,44.45
2019-01-09T00:33:22.406Z,44.45
2019-01-09T00:34:18.803Z,43.88
2019-01-09T00:35:15.724Z,44.42
2019-01-09T00:36:13.597Z,44.43
2019-01-09T00:37:09.770Z,44.42
2019-01-09T00:38:06.935Z,44.43
2019-01-09T00:39:04.930Z,44.43
2019-01-09T00:40:01.009Z,44.42
2019-01-09T00:40:58.106Z,44.43
2019-01-09T00:41:55.127Z,44.42
2019-01-09T00:42:52.195Z,44.76
2019-01-09T00:43:49.265Z,44.31
2019-01-09T00:44:47.209Z,43.83
2019-01-09T00:45:43.441Z,43.57
2019-01-09T00:46:41.328Z,44.40
2019-01-09T00:47:38.389Z,44.41
2019-01-09T00:48:34.667Z,44.41
2019-01-09T00:49:31.631Z,44.41
2019-01-09T00:50:29.669Z,44.82
2019-01-09T00:51:25.780Z,44.39
2019-01-09T00:52:22.837Z,44.40
2019-01-09T00:53:19.888Z,44.40
2019-01-09T00:54:16.976Z,44.40
2019-01-09T00:55:14.108Z,44.40
2019-01-09T00:56:11.982Z,44.12
2019-01-09T00:57:08.168Z,44.41
2019-01-09T00:58:05.261Z,44.42
2019-01-09T00:59:03.191Z,44.25
2019-01-09T00:59:59.410Z,44.34
2019-01-09T01:00:56.510Z,44.41
2019-01-09T01:01:54.689Z,43.51
2019-01-09T01:02:50.557Z,44.42
2019-01-09T01:03:48.583Z,44.02
2019-01-09T01:04:44.694Z,44.42
2019-01-09T01:05:46.224Z,44.41
2019-01-09T01:06:38.856Z,44.06
2019-01-09T01:07:35.946Z,44.22
2019-01-09T01:08:33.071Z,44.43
2019-01-09T01:09:30.035Z,44.42
2019-01-09T01:10:27.138Z,44.08
2019-01-09T01:11:24.155Z,44.43
2019-01-09T01:12:21.262Z,44.44
2019-01-09T01:13:18.279Z,44.64
2019-01-09T01:14:16.235Z,44.44
2019-01-09T01:15:14.296Z,44.18
2019-01-09T01:16:10.361Z,44.60
2019-01-09T01:17:06.582Z,44.28
2019-01-09T01:18:04.633Z,44.75
2019-01-09T01:19:01.729Z,44.16
2019-01-09T01:19:58.616Z,44.48
2019-01-09T01:20:54.839Z,44.44
2019-01-09T01:21:53.859Z,44.45
2019-01-09T01:22:49.842Z,44.78
2019-01-09T01:23:46.053Z,44.46
2019-01-09T01:24:43.148Z,44.43
2019-01-09T01:25:40.192Z,44.45
2019-01-09T01:26:38.083Z,44.46
2019-01-09T01:27:35.150Z,44.47
2019-01-09T01:28:31.337Z,44.53
2019-01-09T01:29:28.429Z,44.48
2019-01-09T01:30:26.608Z,44.48
2019-01-09T01:31:23.522Z,44.63
2019-01-09T01:32:20.620Z,44.80
2019-01-09T01:33:16.746Z,43.77
2019-01-09T01:34:14.617Z,43.51
2019-01-09T01:35:10.883Z,43.80
2019-01-09T01:36:07.852Z,44.46
2019-01-09T01:37:04.996Z,44.47
2019-01-09T01:38:02.890Z,44.48
2019-01-09T01:38:59.952Z,44.48
2019-01-09T01:39:56.177Z,44.31
2019-01-09T01:40:54.083Z,44.50
2019-01-09T01:41:50.264Z,44.48
2019-01-09T01:42:47.323Z,44.49
2019-01-09T01:43:45.281Z,44.49
2019-01-09T01:44:41.457Z,44.49
2019-01-09T01:45:38.533Z,44.49
2019-01-09T01:46:36.639Z,44.36
2019-01-09T01:47:33.681Z,44.93
2019-01-09T01:48:29.789Z,44.49
2019-01-09T01:49:26.780Z,44.48
2019-01-09T01:50:23.874Z,44.28
2019-01-09T01:51:21.004Z,44.50
2019-01-09T01:52:18.010Z,44.67
2019-01-09T01:53:15.928Z,44.50
2019-01-09T01:54:12.189Z,44.49
2019-01-09T01:55:10.079Z,44.50
2019-01-09T01:56:06.303Z,43.65
2019-01-09T01:57:03.401Z,44.45
2019-01-09T01:58:01.273Z,44.48
2019-01-09T01:58:57.461Z,44.63
2019-01-09T01:59:55.395Z,43.40
2019-01-09T02:00:51.601Z,44.51
2019-01-09T02:01:48.635Z,43.90
2019-01-09T02:02:45.793Z,44.56
2019-01-09T02:03:42.864Z,44.53
2019-01-09T02:04:40.868Z,44.51
2019-01-09T02:05:36.950Z,44.54
2019-01-09T02:06:35.857Z,44.54
2019-01-09T02:07:31.151Z,44.55
2019-01-09T02:08:28.120Z,44.54
2019-01-09T02:09:26.059Z,44.41
2019-01-09T02:10:22.230Z,44.56
2019-01-09T02:11:19.322Z,44.16
2019-01-09T02:12:17.260Z,44.35
2019-01-09T02:13:14.325Z,44.54
2019-01-09T02:14:10.527Z,44.55
2019-01-09T02:15:07.558Z,44.53
2019-01-09T02:16:04.715Z,44.56
2019-01-09T02:17:01.700Z,44.58
2019-01-09T02:17:59.651Z,44.82
2019-01-09T02:18:55.871Z,44.56
2019-01-09T02:19:52.910Z,44.57
2019-01-09T02:20:51.150Z,44.16
2019-01-09T02:21:47.913Z,44.03
2019-01-09T02:22:44.992Z,44.85
2019-01-09T02:23:41.214Z,44.58
2019-01-09T02:24:38.250Z,44.57
2019-01-09T02:25:36.172Z,44.19
2019-01-09T02:26:33.245Z,44.38
2019-01-09T02:27:30.315Z,44.39
2019-01-09T02:28:26.496Z,44.56
2019-01-09T02:29:24.531Z,44.56
2019-01-09T02:30:21.504Z,44.57
2019-01-09T02:31:18.577Z,44.30
2019-01-09T02:32:15.771Z,44.54
2019-01-09T02:33:11.844Z,44.55
2019-01-09T02:34:10.768Z,44.55
2019-01-09T02:35:06.011Z,44.83
2019-01-09T02:36:13.113Z,44.61
2019-01-09T02:37:00.966Z,43.88
2019-01-09T02:38:04.985Z,44.55
2019-01-09T02:38:54.268Z,44.41
2019-01-09T02:39:51.381Z,44.54
2019-01-09T02:40:48.402Z,44.53
2019-01-09T02:41:46.314Z,43.98
2019-01-09T02:42:42.492Z,44.52
2019-01-09T02:43:40.427Z,44.54
2019-01-09T02:44:37.671Z,44.57
2019-01-09T02:45:34.557Z,44.52
2019-01-09T02:46:31.640Z,44.72
2019-01-09T02:47:28.688Z,44.52
2019-01-09T02:48:25.755Z,44.52
2019-01-09T02:49:22.824Z,44.37
2019-01-09T02:50:19.893Z,44.49
2019-01-09T02:51:16.081Z,44.50
2019-01-09T02:52:14.017Z,44.51
2019-01-09T02:53:10.285Z,44.47
2019-01-09T02:54:08.150Z,44.31
2019-01-09T02:55:05.215Z,44.51
2019-01-09T02:56:02.290Z,44.51
2019-01-09T02:56:58.600Z,44.28
2019-01-09T02:57:57.103Z,44.26
2019-01-09T02:58:53.504Z,44.48
2019-01-09T02:59:49.753Z,45.12
2019-01-09T03:00:47.626Z,44.48
2019-01-09T03:01:44.991Z,44.57
2019-01-09T03:02:40.874Z,44.47
2019-01-09T03:03:38.013Z,44.45
2019-01-09T03:04:34.999Z,44.43
2019-01-09T03:05:32.955Z,44.44
2019-01-09T03:06:29.153Z,44.53
2019-01-09T03:07:26.273Z,44.40
2019-01-09T03:08:23.403Z,44.40
2019-01-09T03:09:21.208Z,44.11
2019-01-09T03:10:17.426Z,44.56
2019-01-09T03:11:15.530Z,44.35
2019-01-09T03:12:11.611Z,44.38
2019-01-09T03:13:08.587Z,44.57
2019-01-09T03:14:05.682Z,44.35
2019-01-09T03:15:02.719Z,44.36
2019-01-09T03:15:59.822Z,43.90
2019-01-09T03:16:56.844Z,44.34
2019-01-09T03:17:53.940Z,44.18
2019-01-09T03:18:51.037Z,44.26
2019-01-09T03:19:48.930Z,44.35
2019-01-09T03:20:45.996Z,44.33
2019-01-09T03:21:42.191Z,44.41
2019-01-09T03:22:40.128Z,43.77
2019-01-09T03:23:36.356Z,44.21
2019-01-09T03:24:33.415Z,43.40
2019-01-09T03:25:31.331Z,44.30
2019-01-09T03:26:28.395Z,44.30
2019-01-09T03:27:24.564Z,44.31
2019-01-09T03:28:21.661Z,44.30
2019-01-09T03:29:19.758Z,44.30
2019-01-09T03:30:16.783Z,44.08
2019-01-09T03:31:12.892Z,44.04
2019-01-09T03:32:10.288Z,43.93
2019-01-09T03:33:06.968Z,44.30
2019-01-09T03:34:04.101Z,44.28
2019-01-09T03:35:01.100Z,44.30
2019-01-09T03:35:58.181Z,44.51
2019-01-09T03:36:55.312Z,44.08
2019-01-09T03:37:53.197Z,44.29
2019-01-09T03:38:50.259Z,43.86
2019-01-09T03:39:46.484Z,44.32
2019-01-09T03:40:44.393Z,44.33
2019-01-09T03:41:41.452Z,43.78
2019-01-09T03:42:37.685Z,44.25
2019-01-09T03:43:35.575Z,44.17
2019-01-09T03:44:32.646Z,43.88
2019-01-09T03:45:29.712Z,44.27
2019-01-09T03:46:25.893Z,44.22
2019-01-09T03:47:23.025Z,44.26
2019-01-09T03:48:21.016Z,44.25
2019-01-09T03:49:17.979Z,44.24
2019-01-09T03:50:14.207Z,43.88
2019-01-09T03:51:12.112Z,44.25
2019-01-09T03:52:08.346Z,44.68
2019-01-09T03:53:05.452Z,44.20
2019-01-09T03:54:03.314Z,43.90
2019-01-09T03:54:59.476Z,44.52
2019-01-09T03:55:56.556Z,44.59
2019-01-09T03:56:54.505Z,44.22
2019-01-09T03:57:50.681Z,44.57
2019-01-09T03:58:47.784Z,44.21
2019-01-09T03:59:44.805Z,43.61
2019-01-09T04:00:41.904Z,44.48
2019-01-09T04:01:39.832Z,44.09
2019-01-09T04:02:36.901Z,43.83
2019-01-09T04:03:33.174Z,44.16
2019-01-09T04:04:31.029Z,44.17
2019-01-09T04:05:27.199Z,44.15
2019-01-09T04:06:24.272Z,44.15
2019-01-09T04:07:22.247Z,44.14
2019-01-09T04:08:18.429Z,44.17
2019-01-09T04:09:16.360Z,44.17
2019-01-09T04:10:12.562Z,44.65
2019-01-09T04:11:09.681Z,44.65
2019-01-09T04:12:07.552Z,43.99
2019-01-09T04:13:03.756Z,44.17
2019-01-09T04:14:01.993Z,44.78
2019-01-09T04:14:58.749Z,44.72
2019-01-09T04:15:55.831Z,43.51
2019-01-09T04:16:52.070Z,44.10
2019-01-09T04:17:49.958Z,43.97
2019-01-09T04:18:46.226Z,44.12
2019-01-09T04:19:44.089Z,44.12
2019-01-09T04:20:40.319Z,44.65
2019-01-09T04:21:37.388Z,44.13
2019-01-09T04:22:34.429Z,44.13
2019-01-09T04:23:31.464Z,44.11
2019-01-09T04:24:29.437Z,44.13
2019-01-09T04:25:25.644Z,44.11
2019-01-09T04:26:22.690Z,44.34
2019-01-09T04:27:20.616Z,43.73
2019-01-09T04:28:16.817Z,44.04
2019-01-09T04:29:14.758Z,44.11
2019-01-09T04:30:11.805Z,44.11
2019-01-09T04:31:08.041Z,44.37
2019-01-09T04:32:05.110Z,44.10
2019-01-09T04:33:02.146Z,44.56
2019-01-09T04:33:59.197Z,43.97
2019-01-09T04:34:56.341Z,44.09
2019-01-09T04:35:53.374Z,44.08
2019-01-09T04:36:52.046Z,43.83
2019-01-09T04:37:48.654Z,44.38
2019-01-09T04:38:44.545Z,44.15
2019-01-09T04:39:42.599Z,44.06
2019-01-09T04:40:38.657Z,44.06
2019-01-09T04:41:35.709Z,44.01
2019-01-09T04:42:32.861Z,44.04
2019-01-09T04:43:29.846Z,44.71
2019-01-09T04:44:26.996Z,44.14
2019-01-09T04:45:24.868Z,44.03
2019-01-09T04:46:21.082Z,44.03
2019-01-09T04:47:18.196Z,44.03
2019-01-09T04:48:16.063Z,44.24
2019-01-09T04:49:12.242Z,44.43
2019-01-09T04:50:10.195Z,44.00
2019-01-09T04:51:07.366Z,44.00
2019-01-09T04:52:03.500Z,43.99
2019-01-09T04:53:00.529Z,44.09
2019-01-09T04:53:59.355Z,44.09
2019-01-09T04:54:54.721Z,43.99
2019-01-09T04:55:52.595Z,44.00
2019-01-09T04:56:48.810Z,44.64
2019-01-09T04:57:46.724Z,44.01
2019-01-09T04:58:43.809Z,44.02
2019-01-09T04:59:40.866Z,44.01
2019-01-09T05:00:37.051Z,43.46
2019-01-09T05:01:34.090Z,44.02
2019-01-09T05:02:31.193Z,43.90
2019-01-09T05:03:29.128Z,44.05
2019-01-09T05:04:25.331Z,44.07
2019-01-09T05:05:22.400Z,44.04
2019-01-09T05:06:20.323Z,44.45
2019-01-09T05:07:16.516Z,43.91
2019-01-09T05:08:13.563Z,44.21
2019-01-09T05:09:11.530Z,43.80
2019-01-09T05:10:07.686Z,44.04
2019-01-09T05:11:04.775Z,43.90
2019-01-09T05:12:01.822Z,44.04
2019-01-09T05:12:58.954Z,43.67
2019-01-09T05:13:55.947Z,44.04
2019-01-09T05:14:54.904Z,43.85
2019-01-09T05:15:50.986Z,44.41
2019-01-09T05:16:47.172Z,44.04
2019-01-09T05:17:44.221Z,44.05
2019-01-09T05:18:41.391Z,43.66
2019-01-09T05:19:39.239Z,44.11
2019-01-09T05:20:35.502Z,44.05
2019-01-09T05:21:32.500Z,44.10
2019-01-09T05:22:30.444Z,44.08
2019-01-09T05:23:26.609Z,44.10
2019-01-09T05:24:23.717Z,43.91
2019-01-09T05:25:20.742Z,44.09
2019-01-09T05:26:18.699Z,43.94
2019-01-09T05:27:15.766Z,44.43
2019-01-09T05:28:12.833Z,44.08
2019-01-09T05:29:09.092Z,44.08
2019-01-09T05:30:06.151Z,44.31
2019-01-09T05:31:07.623Z,44.28
2019-01-09T05:32:00.210Z,44.13
2019-01-09T05:32:57.294Z,44.12
2019-01-09T05:33:54.364Z,44.13
2019-01-09T05:34:51.402Z,44.12
2019-01-09T05:35:49.354Z,43.96
2019-01-09T05:36:46.417Z,44.09
2019-01-09T05:37:42.628Z,44.10
2019-01-09T05:38:40.561Z,44.08
2019-01-09T05:39:39.774Z,43.42
2019-01-09T05:40:33.827Z,44.08
2019-01-09T05:41:30.912Z,44.08
2019-01-09T05:42:29.816Z,44.07
2019-01-09T05:43:25.004Z,44.00
2019-01-09T05:44:22.158Z,44.05
2019-01-09T05:45:19.196Z,44.04
2019-01-09T05:46:16.255Z,44.04
2019-01-09T05:47:13.330Z,44.04
2019-01-09T05:48:10.368Z,44.03
2019-01-09T05:49:08.284Z,44.02
2019-01-09T05:50:04.522Z,44.01
2019-01-09T05:51:01.571Z,44.00
2019-01-09T05:51:58.620Z,44.01
2019-01-09T05:52:55.769Z,44.00
2019-01-09T05:53:52.800Z,44.16
2019-01-09T05:54:50.689Z,44.25
2019-01-09T05:55:46.946Z,43.97
2019-01-09T05:56:43.949Z,43.96
2019-01-09T05:57:41.880Z,43.94
2019-01-09T05:58:38.074Z,43.93
2019-01-09T05:59:36.137Z,43.91
2019-01-09T06:00:32.213Z,43.83
2019-01-09T06:01:30.141Z,43.63
2019-01-09T06:02:27.980Z,43.93
2019-01-09T06:03:23.653Z,43.69
2019-01-09T06:04:20.643Z,43.30
2019-01-09T06:05:18.407Z,43.91
2019-01-09T06:06:14.667Z,44.24
2019-01-09T06:07:18.319Z,43.93
2019-01-09T06:08:09.119Z,43.90
2019-01-09T06:09:05.797Z,43.67
2019-01-09T06:10:02.841Z,43.36
2019-01-09T06:10:59.908Z,44.50
2019-01-09T06:11:57.298Z,43.87
2019-01-09T06:12:54.056Z,43.85
2019-01-09T06:13:52.009Z,43.87
2019-01-09T06:14:48.278Z,43.84
2019-01-09T06:15:46.188Z,43.87
2019-01-09T06:16:42.542Z,43.91
2019-01-09T06:17:40.261Z,43.83
2019-01-09T06:18:36.462Z,43.85
2019-01-09T06:19:34.395Z,43.81
2019-01-09T06:20:30.567Z,43.65
2019-01-09T06:21:27.713Z,43.79
2019-01-09T06:22:25.598Z,43.79
2019-01-09T06:23:21.821Z,44.23
2019-01-09T06:24:18.826Z,44.01
2019-01-09T06:25:16.090Z,44.30
2019-01-09T06:26:12.989Z,43.79
2019-01-09T06:27:10.135Z,43.76
2019-01-09T06:28:07.163Z,43.78
2019-01-09T06:29:04.195Z,43.81
2019-01-09T06:30:01.249Z,43.82
2019-01-09T06:30:58.291Z,44.06
2019-01-09T06:31:56.259Z,43.81
2019-01-09T06:32:52.531Z,43.83
2019-01-09T06:33:49.485Z,43.83
2019-01-09T06:34:46.573Z,43.82
2019-01-09T06:35:43.677Z,44.04
2019-01-09T06:36:40.715Z,43.84
2019-01-09T06:37:37.751Z,43.84
2019-01-09T06:38:35.711Z,43.83
2019-01-09T06:39:31.930Z,43.84
2019-01-09T06:40:29.858Z,43.87
2019-01-09T06:41:26.382Z,43.87
2019-01-09T06:42:23.141Z,43.87
2019-01-09T06:43:21.040Z,43.92
2019-01-09T06:44:18.276Z,43.62
2019-01-09T06:45:15.629Z,43.96
2019-01-09T06:46:11.594Z,43.87
2019-01-09T06:47:08.441Z,43.91
2019-01-09T06:48:05.488Z,44.31
2019-01-09T06:49:02.621Z,43.47
2019-01-09T06:50:00.505Z,44.13
2019-01-09T06:50:57.624Z,43.92
2019-01-09T06:51:53.747Z,43.68
2019-01-09T06:52:50.823Z,43.36
2019-01-09T06:53:48.763Z,43.90
2019-01-09T06:54:45.837Z,43.91
2019-01-09T06:55:42.062Z,44.04
2019-01-09T06:56:39.974Z,43.90
2019-01-09T06:57:36.164Z,43.92
2019-01-09T06:58:34.092Z,43.93
2019-01-09T06:59:30.276Z,43.95
2019-01-09T07:00:28.248Z,43.93
2019-01-09T07:01:25.293Z,43.93
2019-01-09T07:02:22.323Z,43.95
2019-01-09T07:03:19.538Z,43.95
2019-01-09T07:04:16.502Z,43.79
2019-01-09T07:05:13.614Z,43.61
2019-01-09T07:06:09.762Z,43.99
2019-01-09T07:07:06.828Z,43.31
2019-01-09T07:08:03.873Z,44.03
2019-01-09T07:09:00.932Z,44.04
2019-01-09T07:09:58.068Z,44.01
2019-01-09T07:10:55.085Z,43.81
2019-01-09T07:11:52.162Z,43.83
2019-01-09T07:12:49.283Z,43.74
2019-01-09T07:13:46.269Z,43.62
2019-01-09T07:14:43.327Z,43.53
2019-01-09T07:15:40.400Z,43.42
2019-01-09T07:16:37.538Z,42.87
2019-01-09T07:17:35.421Z,43.31
2019-01-09T07:18:32.500Z,42.88
2019-01-09T07:19:28.728Z,42.04
2019-01-09T07:20:25.771Z,43.14
2019-01-09T07:21:22.869Z,43.08
2019-01-09T07:22:20.759Z,43.03
2019-01-09T07:23:17.008Z,42.96
2019-01-09T07:24:14.887Z,42.90
2019-01-09T07:25:11.281Z,42.40
2019-01-09T07:26:08.210Z,42.81
2019-01-09T07:27:05.213Z,42.76
2019-01-09T07:28:02.283Z,42.74
2019-01-09T07:28:59.321Z,42.74
2019-01-09T07:29:57.397Z,42.85
2019-01-09T07:30:54.445Z,42.73
2019-01-09T07:31:50.525Z,42.69
2019-01-09T07:32:47.602Z,43.12
2019-01-09T07:33:44.678Z,42.17
2019-01-09T07:34:41.777Z,42.80
2019-01-09T07:35:38.783Z,42.82
2019-01-09T07:36:35.872Z,42.81
2019-01-09T07:37:33.253Z,42.79
2019-01-09T07:38:30.002Z,42.79
2019-01-09T07:39:27.093Z,43.29
2019-01-09T07:40:24.135Z,42.77
2019-01-09T07:41:22.064Z,42.75
2019-01-09T07:42:18.270Z,42.75
2019-01-09T07:43:15.388Z,42.74
2019-01-09T07:44:12.394Z,42.71
2019-01-09T07:45:09.468Z,42.70
2019-01-09T07:46:06.600Z,42.55
2019-01-09T07:47:04.460Z,42.49
2019-01-09T07:48:01.533Z,43.32
2019-01-09T07:48:59.610Z,42.76
2019-01-09T07:49:54.854Z,42.71
2019-01-09T07:50:51.889Z,42.70
2019-01-09T07:51:48.988Z,42.67
2019-01-09T07:52:46.129Z,42.90
2019-01-09T07:53:43.116Z,42.90
2019-01-09T07:54:40.142Z,42.22
2019-01-09T07:55:37.159Z,42.10
2019-01-09T07:56:34.361Z,42.36
2019-01-09T07:57:31.302Z,42.21
2019-01-09T07:58:29.706Z,42.24
2019-01-09T07:59:25.471Z,41.56
2019-01-09T08:00:23.447Z,42.19
2019-01-09T08:01:20.449Z,42.15
2019-01-09T08:02:16.702Z,42.63
2019-01-09T08:03:14.582Z,42.12
2019-01-09T08:04:10.850Z,42.10
2019-01-09T08:05:07.861Z,42.09
2019-01-09T08:06:05.778Z,41.90
2019-01-09T08:07:02.859Z,42.09
2019-01-09T08:07:59.021Z,42.08
2019-01-09T08:08:56.121Z,42.07
2019-01-09T08:09:54.043Z,42.07
2019-01-09T08:10:51.110Z,42.05
2019-01-09T08:11:48.167Z,42.06
2019-01-09T08:12:45.240Z,42.20
2019-01-09T08:13:41.510Z,42.31
2019-01-09T08:14:39.381Z,42.06
2019-01-09T08:15:35.543Z,42.01
2019-01-09T08:16:32.610Z,42.00
2019-01-09T08:17:30.572Z,42.00
2019-01-09T08:18:27.638Z,41.99
2019-01-09T08:19:24.701Z,41.98
2019-01-09T08:20:20.966Z,42.48
2019-01-09T08:21:17.973Z,41.97
2019-01-09T08:22:16.091Z,41.97
2019-01-09T08:23:12.971Z,41.97
2019-01-09T08:24:10.057Z,41.99
2019-01-09T08:25:07.094Z,42.02
2019-01-09T08:26:04.161Z,42.03
2019-01-09T08:27:01.229Z,41.51
2019-01-09T08:27:58.290Z,42.06
2019-01-09T08:28:55.371Z,42.07
2019-01-09T08:29:52.433Z,42.57
2019-01-09T08:30:49.491Z,42.09
2019-01-09T08:31:46.549Z,42.10
2019-01-09T08:32:43.627Z,42.12
2019-01-09T08:33:41.689Z,43.10
2019-01-09T08:34:37.806Z,42.10
2019-01-09T08:35:34.813Z,42.11
2019-01-09T08:36:31.885Z,42.12
2019-01-09T08:37:28.160Z,42.13
2019-01-09T08:38:25.216Z,42.13
2019-01-09T08:39:23.095Z,42.10
2019-01-09T08:40:19.280Z,42.11
2019-01-09T08:41:17.240Z,41.98
2019-01-09T08:42:14.282Z,42.15
2019-01-09T08:43:11.353Z,42.11
2019-01-09T08:44:08.413Z,42.16
2019-01-09T08:45:05.621Z,41.54
2019-01-09T08:46:02.545Z,42.18
2019-01-09T08:46:59.607Z,42.43
2019-01-09T08:47:57.146Z,42.39
2019-01-09T08:48:53.748Z,42.46
2019-01-09T08:49:50.814Z,42.12
2019-01-09T08:50:47.883Z,42.08
2019-01-09T08:51:44.966Z,42.01
2019-01-09T08:52:42.008Z,41.46
2019-01-09T08:53:39.078Z,42.20
2019-01-09T08:54:36.152Z,41.79
2019-01-09T08:55:33.211Z,41.73
2019-01-09T08:56:30.266Z,41.74
2019-01-09T08:57:27.343Z,41.62
2019-01-09T08:58:24.399Z,41.32
2019-01-09T08:59:21.596Z,41.45
2019-01-09T09:00:18.534Z,41.49
2019-01-09T09:01:15.599Z,41.43
2019-01-09T09:02:12.659Z,41.21
2019-01-09T09:03:09.729Z,41.04
2019-01-09T09:04:06.795Z,41.38
2019-01-09T09:05:04.170Z,41.36
2019-01-09T09:06:00.931Z,41.34
2019-01-09T09:06:57.160Z,41.45
2019-01-09T09:07:55.060Z,41.27
2019-01-09T09:08:52.139Z,41.26
2019-01-09T09:09:49.214Z,41.44
2019-01-09T09:10:46.249Z,41.09
2019-01-09T09:11:43.329Z,41.29
2019-01-09T09:12:40.411Z,41.32
2019-01-09T09:13:37.445Z,41.28
2019-01-09T09:14:34.519Z,41.32
2019-01-09T09:15:31.585Z,41.36
2019-01-09T09:16:36.403Z,41.36
2019-01-09T09:17:25.720Z,41.38
2019-01-09T09:18:22.871Z,41.42
2019-01-09T09:19:19.846Z,41.57
2019-01-09T09:20:17.005Z,41.64
2019-01-09T09:21:14.023Z,41.46
2019-01-09T09:22:11.047Z,41.82
2019-01-09T09:23:08.115Z,41.23
2019-01-09T09:24:05.190Z,40.87
2019-01-09T09:25:03.261Z,41.53
2019-01-09T09:25:59.332Z,42.20
2019-01-09T09:26:56.373Z,41.94
2019-01-09T09:27:53.602Z,41.31
2019-01-09T09:28:50.512Z,41.57
2019-01-09T09:29:47.571Z,41.57
2019-01-09T09:30:44.656Z,41.85
2019-01-09T09:31:41.706Z,40.86
2019-01-09T09:32:38.802Z,41.72
2019-01-09T09:33:35.851Z,41.04
2019-01-09T09:34:32.905Z,41.66
2019-01-09T09:35:29.976Z,41.67
2019-01-09T09:36:27.032Z,41.69
2019-01-09T09:37:24.108Z,41.66
2019-01-09T09:38:21.171Z,41.68
2019-01-09T09:39:18.232Z,41.06
2019-01-09T09:40:15.583Z,41.71
2019-01-09T09:41:12.370Z,42.49
2019-01-09T09:42:09.430Z,41.72
2019-01-09T09:43:06.511Z,41.74
2019-01-09T09:44:03.568Z,41.53
2019-01-09T09:45:00.638Z,41.74
2019-01-09T09:45:57.758Z,42.61
2019-01-09T09:46:54.762Z,41.86
2019-01-09T09:47:51.819Z,41.57
2019-01-09T09:48:48.890Z,41.78
2019-01-09T09:49:45.965Z,41.80
2019-01-09T09:50:42.158Z,41.74
2019-01-09T09:51:40.543Z,42.32
2019-01-09T09:52:38.162Z,41.84
2019-01-09T09:53:34.225Z,41.84
2019-01-09T09:54:31.286Z,42.19
2019-01-09T09:55:28.811Z,41.89
2019-01-09T09:56:25.412Z,42.21
2019-01-09T09:57:22.493Z,41.89
2019-01-09T09:58:19.564Z,41.18
2019-01-09T09:59:16.618Z,41.86
2019-01-09T10:00:13.699Z,41.84
2019-01-09T10:01:10.756Z,41.79
2019-01-09T10:02:07.815Z,41.92
2019-01-09T10:03:04.879Z,41.53
2019-01-09T10:04:01.941Z,41.62
2019-01-09T10:04:59.028Z,41.57
2019-01-09T10:05:56.082Z,41.16
2019-01-09T10:06:53.607Z,41.34
2019-01-09T10:07:50.212Z,41.49
2019-01-09T10:08:47.279Z,42.02
2019-01-09T10:09:45.341Z,41.43
2019-01-09T10:10:41.405Z,41.24
2019-01-09T10:11:38.493Z,41.42
2019-01-09T10:12:35.584Z,41.57
2019-01-09T10:13:32.776Z,41.41
2019-01-09T10:14:29.665Z,41.44
2019-01-09T10:15:26.733Z,40.89
2019-01-09T10:16:23.806Z,41.40
2019-01-09T10:17:20.903Z,41.38
2019-01-09T10:18:17.932Z,41.39
2019-01-09T10:19:14.999Z,41.39
2019-01-09T10:20:12.070Z,41.82
2019-01-09T10:21:09.137Z,41.40
2019-01-09T10:22:06.200Z,41.39
2019-01-09T10:23:03.263Z,41.39
2019-01-09T10:24:00.641Z,41.41
2019-01-09T10:24:57.400Z,40.97
2019-01-09T10:25:54.467Z,41.70
2019-01-09T10:26:51.546Z,41.43
2019-01-09T10:27:48.598Z,42.11
2019-01-09T10:28:45.661Z,41.70
2019-01-09T10:29:42.730Z,41.10
2019-01-09T10:30:39.797Z,41.88
2019-01-09T10:31:36.868Z,41.57
2019-01-09T10:32:33.931Z,41.48
2019-01-09T10:33:30.995Z,41.50
2019-01-09T10:34:28.059Z,41.50
2019-01-09T10:35:25.114Z,41.16
2019-01-09T10:36:22.195Z,41.79
2019-01-09T10:37:19.262Z,41.16
2019-01-09T10:38:16.333Z,41.60
2019-01-09T10:39:13.387Z,41.47
2019-01-09T10:40:10.451Z,41.45
2019-01-09T10:41:07.517Z,41.44
2019-01-09T10:42:04.583Z,41.43
2019-01-09T10:43:01.701Z,41.43
2019-01-09T10:43:58.716Z,40.66
2019-01-09T10:44:55.780Z,41.66
2019-01-09T10:45:52.851Z,41.42
2019-01-09T10:46:49.919Z,41.42
2019-01-09T10:47:46.984Z,41.50
2019-01-09T10:48:44.046Z,41.66
2019-01-09T10:49:41.105Z,41.24
2019-01-09T10:50:38.176Z,41.37
2019-01-09T10:51:35.246Z,41.40
2019-01-09T10:52:32.316Z,41.39
2019-01-09T10:53:29.371Z,41.41
2019-01-09T10:54:26.441Z,41.41
2019-01-09T10:55:23.504Z,41.41
2019-01-09T10:56:20.568Z,41.42
2019-01-09T10:57:17.635Z,41.43
2019-01-09T10:58:15.008Z,40.77
2019-01-09T10:59:11.772Z,41.07
2019-01-09T11:00:08.837Z,41.51
2019-01-09T11:01:05.907Z,41.50
2019-01-09T11:02:02.986Z,41.03
2019-01-09T11:03:00.029Z,41.52
2019-01-09T11:03:57.094Z,41.54
2019-01-09T11:04:54.164Z,41.55
2019-01-09T11:05:51.230Z,41.54
2019-01-09T11:06:48.292Z,41.57
2019-01-09T11:07:45.852Z,42.07
2019-01-09T11:08:46.911Z,40.78
2019-01-09T11:09:39.493Z,41.58
2019-01-09T11:10:36.555Z,41.60
2019-01-09T11:11:34.623Z,41.61
2019-01-09T11:12:30.685Z,41.62
2019-01-09T11:13:27.754Z,41.62
2019-01-09T11:14:24.824Z,41.60
2019-01-09T11:15:22.207Z,41.61
2019-01-09T11:16:18.951Z,41.52
2019-01-09T11:17:16.029Z,41.53
2019-01-09T11:18:13.088Z,42.24
2019-01-09T11:19:10.164Z,41.64
2019-01-09T11:20:07.212Z,41.65
2019-01-09T11:21:04.286Z,41.61
2019-01-09T11:22:01.352Z,41.62
2019-01-09T11:22:58.415Z,40.90
2019-01-09T11:23:55.608Z,41.65
2019-01-09T11:24:52.547Z,41.65
2019-01-09T11:25:49.609Z,41.66
2019-01-09T11:26:46.678Z,41.04
2019-01-09T11:27:43.751Z,41.56
2019-01-09T11:28:41.806Z,41.12
2019-01-09T11:29:37.871Z,41.21
2019-01-09T11:30:34.941Z,41.69
2019-01-09T11:31:32.007Z,41.12
2019-01-09T11:32:29.079Z,41.67
2019-01-09T11:33:26.138Z,41.69
2019-01-09T11:34:23.398Z,41.78
2019-01-09T11:35:20.278Z,41.70
2019-01-09T11:36:17.363Z,41.73
2019-01-09T11:37:14.399Z,41.69
2019-01-09T11:38:11.596Z,41.71
2019-01-09T11:39:08.541Z,42.49
2019-01-09T11:40:05.602Z,41.84
2019-01-09T11:41:02.668Z,41.26
2019-01-09T11:41:59.727Z,41.78
2019-01-09T11:42:57.115Z,41.68
2019-01-09T11:43:53.867Z,41.54
2019-01-09T11:44:50.936Z,41.46
2019-01-09T11:45:47.170Z,41.74
2019-01-09T11:46:45.073Z,41.75
2019-01-09T11:47:42.152Z,41.75
2019-01-09T11:48:39.192Z,41.72
2019-01-09T11:49:36.253Z,41.73
2019-01-09T11:50:33.315Z,41.24
2019-01-09T11:51:30.405Z,41.61
2019-01-09T11:52:27.603Z,41.69
2019-01-09T11:53:24.549Z,41.67
2019-01-09T11:54:21.585Z,41.65
2019-01-09T11:55:18.657Z,41.66
2019-01-09T11:56:15.849Z,41.64
2019-01-09T11:57:12.782Z,41.46
2019-01-09T11:58:09.866Z,41.08
2019-01-09T11:59:06.943Z,41.19
2019-01-09T12:00:04.307Z,41.63
2019-01-09T12:01:01.043Z,41.55
2019-01-09T12:01:58.120Z,41.59
2019-01-09T12:02:55.181Z,41.56
2019-01-09T12:03:52.267Z,41.54
2019-01-09T12:04:49.302Z,41.52
2019-01-09T12:05:46.379Z,41.49
2019-01-09T12:06:43.438Z,41.49
2019-01-09T12:07:40.509Z,41.48
2019-01-09T12:08:37.585Z,41.47
2019-01-09T12:09:34.644Z,40.95
2019-01-09T12:10:31.720Z,42.29
2019-01-09T12:11:28.772Z,41.44
2019-01-09T12:12:25.841Z,41.15
2019-01-09T12:13:22.946Z,41.38
2019-01-09T12:14:19.970Z,40.65